sensor_id;sensor_type;location;lat;lon;timestamp;temperature;humidity
26326;DHT22;14032;52.510;7.342;2023-07-16T00:02:04;17.70;99.90
26326;DHT22;14032;52.510;7.342;2023-07-16T00:04:32;17.70;99.90
26326;DHT22;14032;52.510;7.342;2023-07-16T00:06:59;17.70;99.90
26326;DHT22;14032;52.510;7.342;2023-07-16T00:09:25;17.70;99.90
26326;DHT22;14032;52.510;7.342;2023-07-16T00:11:51;17.70;99.90
26326;DHT22;14032;52.510;7.342;2023-07-16T00:14:17;17.70;99.90
26326;DHT22;14032;52.510;7.342;2023-07-16T00:16:43;17.80;99.90
26326;DHT22;14032;52.510;7.342;2023-07-16T00:19:11;17.80;99.90
26326;DHT22;14032;52.510;7.342;2023-07-16T00:21:37;17.80;99.90
26326;DHT22;14032;52.510;7.342;2023-07-16T00:24:03;17.80;99.90
26326;DHT22;14032;52.510;7.342;2023-07-16T00:26:29;17.80;99.90
26326;DHT22;14032;52.510;7.342;2023-07-16T00:28:54;17.90;99.90
26326;DHT22;14032;52.510;7.342;2023-07-16T00:31:20;17.80;99.90
26326;DHT22;14032;52.510;7.342;2023-07-16T00:33:45;17.80;99.90
26326;DHT22;14032;52.510;7.342;2023-07-16T00:36:11;17.80;99.90
26326;DHT22;14032;52.510;7.342;2023-07-16T00:38:40;17.80;99.90
26326;DHT22;14032;52.510;7.342;2023-07-16T00:41:06;17.80;99.90
26326;DHT22;14032;52.510;7.342;2023-07-16T00:43:32;17.80;99.90
26326;DHT22;14032;52.510;7.342;2023-07-16T00:45:57;17.80;99.90
26326;DHT22;14032;52.510;7.342;2023-07-16T00:48:23;17.80;99.90
26326;DHT22;14032;52.510;7.342;2023-07-16T00:50:50;17.80;99.90
26326;DHT22;14032;52.510;7.342;2023-07-16T00:53:17;17.80;99.90
26326;DHT22;14032;52.510;7.342;2023-07-16T00:55:43;17.80;99.90
26326;DHT22;14032;52.510;7.342;2023-07-16T00:58:08;17.80;99.90
26326;DHT22;14032;52.510;7.342;2023-07-16T01:00:36;17.80;99.90
26326;DHT22;14032;52.510;7.342;2023-07-16T01:03:04;17.80;99.90
26326;DHT22;14032;52.510;7.342;2023-07-16T01:05:54;17.80;99.90
26326;DHT22;14032;52.510;7.342;2023-07-16T01:08:30;17.80;99.90
26326;DHT22;14032;52.510;7.342;2023-07-16T01:10:58;17.80;99.90
26326;DHT22;14032;52.510;7.342;2023-07-16T01:13:24;17.80;99.90
26326;DHT22;14032;52.510;7.342;2023-07-16T01:15:49;17.80;99.90
26326;DHT22;14032;52.510;7.342;2023-07-16T01:18:15;17.80;99.90
26326;DHT22;14032;52.510;7.342;2023-07-16T01:20:42;17.90;99.90
26326;DHT22;14032;52.510;7.342;2023-07-16T01:31:01;17.90;99.90
26326;DHT22;14032;52.510;7.342;2023-07-16T01:33:27;17.90;99.90
26326;DHT22;14032;52.510;7.342;2023-07-16T01:35:53;17.90;99.90
26326;DHT22;14032;52.510;7.342;2023-07-16T01:38:19;17.90;99.90
26326;DHT22;14032;52.510;7.342;2023-07-16T01:40:46;18.00;99.90
26326;DHT22;14032;52.510;7.342;2023-07-16T01:43:12;17.90;99.90
26326;DHT22;14032;52.510;7.342;2023-07-16T01:45:38;17.90;99.90
26326;DHT22;14032;52.510;7.342;2023-07-16T01:50:48;17.90;99.90
26326;DHT22;14032;52.510;7.342;2023-07-16T01:53:14;17.90;99.90
26326;DHT22;14032;52.510;7.342;2023-07-16T01:55:39;17.90;99.90
26326;DHT22;14032;52.510;7.342;2023-07-16T01:58:05;17.80;99.90
26326;DHT22;14032;52.510;7.342;2023-07-16T02:00:31;17.80;99.90
26326;DHT22;14032;52.510;7.342;2023-07-16T02:02:56;17.80;99.90
26326;DHT22;14032;52.510;7.342;2023-07-16T02:05:22;17.70;99.90
26326;DHT22;14032;52.510;7.342;2023-07-16T02:07:47;17.70;99.90
26326;DHT22;14032;52.510;7.342;2023-07-16T02:10:13;17.70;99.90
26326;DHT22;14032;52.510;7.342;2023-07-16T02:12:38;17.70;99.90
26326;DHT22;14032;52.510;7.342;2023-07-16T02:15:04;17.70;99.90
26326;DHT22;14032;52.510;7.342;2023-07-16T02:17:30;17.70;99.90
26326;DHT22;14032;52.510;7.342;2023-07-16T02:19:56;17.70;99.90
26326;DHT22;14032;52.510;7.342;2023-07-16T02:22:21;17.70;99.90
26326;DHT22;14032;52.510;7.342;2023-07-16T02:24:47;17.70;99.90
26326;DHT22;14032;52.510;7.342;2023-07-16T02:27:12;17.60;99.90
26326;DHT22;14032;52.510;7.342;2023-07-16T02:29:39;17.60;99.90
26326;DHT22;14032;52.510;7.342;2023-07-16T02:32:04;17.60;99.90
26326;DHT22;14032;52.510;7.342;2023-07-16T02:34:30;17.60;99.90
26326;DHT22;14032;52.510;7.342;2023-07-16T02:36:56;17.50;99.90
26326;DHT22;14032;52.510;7.342;2023-07-16T02:39:21;17.50;99.90
26326;DHT22;14032;52.510;7.342;2023-07-16T02:41:47;17.50;99.90
26326;DHT22;14032;52.510;7.342;2023-07-16T02:44:12;17.50;99.90
26326;DHT22;14032;52.510;7.342;2023-07-16T02:46:38;17.50;99.90
26326;DHT22;14032;52.510;7.342;2023-07-16T02:49:03;17.50;99.90
26326;DHT22;14032;52.510;7.342;2023-07-16T02:51:30;17.50;99.90
26326;DHT22;14032;52.510;7.342;2023-07-16T02:53:55;17.50;99.90
26326;DHT22;14032;52.510;7.342;2023-07-16T02:56:21;17.40;99.90
26326;DHT22;14032;52.510;7.342;2023-07-16T02:58:46;17.40;99.90
26326;DHT22;14032;52.510;7.342;2023-07-16T03:01:12;17.40;99.90
26326;DHT22;14032;52.510;7.342;2023-07-16T03:03:38;17.40;99.90
26326;DHT22;14032;52.510;7.342;2023-07-16T03:06:04;17.40;99.90
26326;DHT22;14032;52.510;7.342;2023-07-16T03:08:29;17.30;99.90
26326;DHT22;14032;52.510;7.342;2023-07-16T03:10:57;17.40;99.90
26326;DHT22;14032;52.510;7.342;2023-07-16T03:13:23;17.30;99.90
26326;DHT22;14032;52.510;7.342;2023-07-16T03:15:48;17.30;99.90
26326;DHT22;14032;52.510;7.342;2023-07-16T03:18:15;17.30;99.90
26326;DHT22;14032;52.510;7.342;2023-07-16T03:20:41;17.30;99.90
26326;DHT22;14032;52.510;7.342;2023-07-16T03:23:06;17.20;99.90
26326;DHT22;14032;52.510;7.342;2023-07-16T03:25:32;17.20;99.90
26326;DHT22;14032;52.510;7.342;2023-07-16T03:27:58;17.30;99.90
26326;DHT22;14032;52.510;7.342;2023-07-16T03:30:25;17.20;99.90
26326;DHT22;14032;52.510;7.342;2023-07-16T03:32:50;17.20;99.90
26326;DHT22;14032;52.510;7.342;2023-07-16T03:35:16;17.20;99.90
26326;DHT22;14032;52.510;7.342;2023-07-16T03:37:41;17.20;99.90
26326;DHT22;14032;52.510;7.342;2023-07-16T03:40:15;17.20;99.90
26326;DHT22;14032;52.510;7.342;2023-07-16T03:42:41;17.20;99.90
26326;DHT22;14032;52.510;7.342;2023-07-16T03:45:07;17.10;99.90
26326;DHT22;14032;52.510;7.342;2023-07-16T03:47:33;17.10;99.90
26326;DHT22;14032;52.510;7.342;2023-07-16T03:49:59;17.10;99.90
26326;DHT22;14032;52.510;7.342;2023-07-16T03:52:24;17.00;99.90
26326;DHT22;14032;52.510;7.342;2023-07-16T03:54:52;17.00;99.90
26326;DHT22;14032;52.510;7.342;2023-07-16T03:57:17;17.00;99.90
26326;DHT22;14032;52.510;7.342;2023-07-16T03:59:43;17.00;99.90
26326;DHT22;14032;52.510;7.342;2023-07-16T04:02:09;17.00;99.90
26326;DHT22;14032;52.510;7.342;2023-07-16T04:04:34;17.00;99.90
26326;DHT22;14032;52.510;7.342;2023-07-16T04:07:00;17.00;99.90
26326;DHT22;14032;52.510;7.342;2023-07-16T04:09:25;17.00;99.90
26326;DHT22;14032;52.510;7.342;2023-07-16T04:11:51;17.00;99.90
26326;DHT22;14032;52.510;7.342;2023-07-16T04:14:16;17.00;99.90
26326;DHT22;14032;52.510;7.342;2023-07-16T04:16:42;17.00;99.90
26326;DHT22;14032;52.510;7.342;2023-07-16T04:19:09;17.00;99.90
26326;DHT22;14032;52.510;7.342;2023-07-16T04:21:35;17.00;99.90
26326;DHT22;14032;52.510;7.342;2023-07-16T04:24:02;17.00;99.90
26326;DHT22;14032;52.510;7.342;2023-07-16T04:26:28;17.00;99.90
26326;DHT22;14032;52.510;7.342;2023-07-16T04:28:53;17.00;99.90
26326;DHT22;14032;52.510;7.342;2023-07-16T04:31:19;17.00;99.90
26326;DHT22;14032;52.510;7.342;2023-07-16T04:33:44;17.00;99.90
26326;DHT22;14032;52.510;7.342;2023-07-16T04:36:10;17.00;99.90
26326;DHT22;14032;52.510;7.342;2023-07-16T04:38:35;17.00;99.90
26326;DHT22;14032;52.510;7.342;2023-07-16T04:41:01;17.00;99.90
26326;DHT22;14032;52.510;7.342;2023-07-16T04:43:27;17.00;99.90
26326;DHT22;14032;52.510;7.342;2023-07-16T04:45:52;17.10;99.90
26326;DHT22;14032;52.510;7.342;2023-07-16T04:48:18;17.10;99.90
26326;DHT22;14032;52.510;7.342;2023-07-16T04:50:44;17.10;99.90
26326;DHT22;14032;52.510;7.342;2023-07-16T04:53:09;17.10;99.90
26326;DHT22;14032;52.510;7.342;2023-07-16T04:55:39;17.10;99.90
26326;DHT22;14032;52.510;7.342;2023-07-16T04:58:06;17.20;99.90
26326;DHT22;14032;52.510;7.342;2023-07-16T05:00:32;17.20;99.90
26326;DHT22;14032;52.510;7.342;2023-07-16T05:02:58;17.30;99.90
26326;DHT22;14032;52.510;7.342;2023-07-16T05:05:24;17.30;99.90
26326;DHT22;14032;52.510;7.342;2023-07-16T05:07:49;17.40;99.90
26326;DHT22;14032;52.510;7.342;2023-07-16T05:10:15;17.50;99.90
26326;DHT22;14032;52.510;7.342;2023-07-16T05:12:40;17.60;99.90
26326;DHT22;14032;52.510;7.342;2023-07-16T05:15:06;17.60;99.90
26326;DHT22;14032;52.510;7.342;2023-07-16T05:17:32;17.70;99.90
26326;DHT22;14032;52.510;7.342;2023-07-16T05:19:58;17.70;99.90
26326;DHT22;14032;52.510;7.342;2023-07-16T05:22:23;17.80;99.90
26326;DHT22;14032;52.510;7.342;2023-07-16T05:24:49;17.80;99.90
26326;DHT22;14032;52.510;7.342;2023-07-16T05:27:14;17.90;99.90
26326;DHT22;14032;52.510;7.342;2023-07-16T05:29:40;18.00;99.90
26326;DHT22;14032;52.510;7.342;2023-07-16T05:32:06;18.00;99.90
26326;DHT22;14032;52.510;7.342;2023-07-16T05:34:31;18.10;99.90
26326;DHT22;14032;52.510;7.342;2023-07-16T05:36:58;18.10;99.90
26326;DHT22;14032;52.510;7.342;2023-07-16T05:39:23;18.20;99.90
26326;DHT22;14032;52.510;7.342;2023-07-16T05:41:49;18.20;99.90
26326;DHT22;14032;52.510;7.342;2023-07-16T05:44:14;18.20;99.90
26326;DHT22;14032;52.510;7.342;2023-07-16T05:46:40;18.30;99.90
26326;DHT22;14032;52.510;7.342;2023-07-16T05:49:06;18.40;99.90
26326;DHT22;14032;52.510;7.342;2023-07-16T05:51:31;18.40;99.90
26326;DHT22;14032;52.510;7.342;2023-07-16T05:53:57;18.50;99.90
26326;DHT22;14032;52.510;7.342;2023-07-16T05:56:23;18.50;99.90
26326;DHT22;14032;52.510;7.342;2023-07-16T05:58:48;18.60;99.90
26326;DHT22;14032;52.510;7.342;2023-07-16T06:01:14;18.60;99.90
26326;DHT22;14032;52.510;7.342;2023-07-16T06:03:39;18.60;99.90
26326;DHT22;14032;52.510;7.342;2023-07-16T06:06:05;18.50;99.90
26326;DHT22;14032;52.510;7.342;2023-07-16T06:08:30;18.60;99.90
26326;DHT22;14032;52.510;7.342;2023-07-16T06:10:56;18.60;99.90
26326;DHT22;14032;52.510;7.342;2023-07-16T06:13:22;18.60;99.90
26326;DHT22;14032;52.510;7.342;2023-07-16T06:15:48;18.70;99.90
26326;DHT22;14032;52.510;7.342;2023-07-16T06:18:13;18.70;99.90
26326;DHT22;14032;52.510;7.342;2023-07-16T06:20:42;18.70;99.90
26326;DHT22;14032;52.510;7.342;2023-07-16T06:23:08;18.70;99.90
26326;DHT22;14032;52.510;7.342;2023-07-16T06:25:33;18.60;99.90
26326;DHT22;14032;52.510;7.342;2023-07-16T06:27:59;18.70;99.90
26326;DHT22;14032;52.510;7.342;2023-07-16T06:30:24;18.70;99.90
26326;DHT22;14032;52.510;7.342;2023-07-16T06:32:51;18.70;99.90
26326;DHT22;14032;52.510;7.342;2023-07-16T06:35:17;18.70;99.90
26326;DHT22;14032;52.510;7.342;2023-07-16T06:37:42;18.80;99.90
26326;DHT22;14032;52.510;7.342;2023-07-16T06:40:08;18.80;99.90
26326;DHT22;14032;52.510;7.342;2023-07-16T06:42:34;18.90;99.90
26326;DHT22;14032;52.510;7.342;2023-07-16T06:44:59;18.90;99.90
26326;DHT22;14032;52.510;7.342;2023-07-16T06:47:25;19.00;99.90
26326;DHT22;14032;52.510;7.342;2023-07-16T06:49:51;19.00;99.90
26326;DHT22;14032;52.510;7.342;2023-07-16T06:52:21;19.10;99.90
26326;DHT22;14032;52.510;7.342;2023-07-16T06:54:47;19.10;99.90
26326;DHT22;14032;52.510;7.342;2023-07-16T06:57:13;19.20;99.90
26326;DHT22;14032;52.510;7.342;2023-07-16T06:59:39;19.20;99.90
26326;DHT22;14032;52.510;7.342;2023-07-16T07:02:05;19.20;99.90
26326;DHT22;14032;52.510;7.342;2023-07-16T07:04:33;19.30;99.90
26326;DHT22;14032;52.510;7.342;2023-07-16T07:07:02;19.30;99.90
26326;DHT22;14032;52.510;7.342;2023-07-16T07:09:27;19.40;99.90
26326;DHT22;14032;52.510;7.342;2023-07-16T07:11:53;19.40;99.90
26326;DHT22;14032;52.510;7.342;2023-07-16T07:14:19;19.40;99.90
26326;DHT22;14032;52.510;7.342;2023-07-16T07:16:44;19.50;99.90
26326;DHT22;14032;52.510;7.342;2023-07-16T07:19:10;19.50;99.90
26326;DHT22;14032;52.510;7.342;2023-07-16T07:21:35;19.60;99.90
26326;DHT22;14032;52.510;7.342;2023-07-16T07:24:01;19.70;99.90
26326;DHT22;14032;52.510;7.342;2023-07-16T07:26:28;19.70;99.90
26326;DHT22;14032;52.510;7.342;2023-07-16T07:28:53;19.80;99.90
26326;DHT22;14032;52.510;7.342;2023-07-16T07:31:19;19.90;99.90
26326;DHT22;14032;52.510;7.342;2023-07-16T07:33:44;19.90;99.90
26326;DHT22;14032;52.510;7.342;2023-07-16T07:36:10;19.90;99.90
26326;DHT22;14032;52.510;7.342;2023-07-16T07:38:35;20.00;99.90
26326;DHT22;14032;52.510;7.342;2023-07-16T07:41:05;20.00;99.90
26326;DHT22;14032;52.510;7.342;2023-07-16T07:43:31;20.10;99.90
26326;DHT22;14032;52.510;7.342;2023-07-16T07:45:56;20.10;99.90
26326;DHT22;14032;52.510;7.342;2023-07-16T07:48:22;20.20;99.90
26326;DHT22;14032;52.510;7.342;2023-07-16T07:50:48;20.30;99.90
26326;DHT22;14032;52.510;7.342;2023-07-16T07:53:13;20.30;99.90
26326;DHT22;14032;52.510;7.342;2023-07-16T07:55:40;20.40;99.90
26326;DHT22;14032;52.510;7.342;2023-07-16T07:58:08;20.50;99.90
26326;DHT22;14032;52.510;7.342;2023-07-16T08:00:33;20.40;99.90
26326;DHT22;14032;52.510;7.342;2023-07-16T08:02:59;20.30;99.90
26326;DHT22;14032;52.510;7.342;2023-07-16T08:05:24;20.20;99.90
26326;DHT22;14032;52.510;7.342;2023-07-16T08:07:50;20.20;99.90
26326;DHT22;14032;52.510;7.342;2023-07-16T08:10:17;20.30;99.90
26326;DHT22;14032;52.510;7.342;2023-07-16T08:12:42;20.20;99.90
26326;DHT22;14032;52.510;7.342;2023-07-16T08:15:09;20.30;99.90
26326;DHT22;14032;52.510;7.342;2023-07-16T08:17:40;20.20;99.90
26326;DHT22;14032;52.510;7.342;2023-07-16T08:20:06;20.20;99.90
26326;DHT22;14032;52.510;7.342;2023-07-16T08:22:32;20.10;99.90
26326;DHT22;14032;52.510;7.342;2023-07-16T08:24:58;19.90;99.90
26326;DHT22;14032;52.510;7.342;2023-07-16T08:27:23;19.90;99.90
26326;DHT22;14032;52.510;7.342;2023-07-16T08:29:49;19.90;99.90
26326;DHT22;14032;52.510;7.342;2023-07-16T08:32:14;20.00;99.90
26326;DHT22;14032;52.510;7.342;2023-07-16T08:34:40;20.00;99.90
26326;DHT22;14032;52.510;7.342;2023-07-16T08:37:06;20.00;99.90
26326;DHT22;14032;52.510;7.342;2023-07-16T08:39:31;20.10;99.90
26326;DHT22;14032;52.510;7.342;2023-07-16T08:41:58;20.10;99.90
26326;DHT22;14032;52.510;7.342;2023-07-16T08:44:23;20.20;99.90
26326;DHT22;14032;52.510;7.342;2023-07-16T08:46:50;20.40;99.90
26326;DHT22;14032;52.510;7.342;2023-07-16T08:49:18;20.50;99.90
26326;DHT22;14032;52.510;7.342;2023-07-16T08:51:49;20.70;99.90
26326;DHT22;14032;52.510;7.342;2023-07-16T08:54:15;20.70;99.90
26326;DHT22;14032;52.510;7.342;2023-07-16T08:56:43;20.80;99.90
26326;DHT22;14032;52.510;7.342;2023-07-16T08:59:10;20.90;99.90
26326;DHT22;14032;52.510;7.342;2023-07-16T09:01:37;20.90;99.90
26326;DHT22;14032;52.510;7.342;2023-07-16T09:04:03;21.00;99.90
26326;DHT22;14032;52.510;7.342;2023-07-16T09:06:28;21.00;99.90
26326;DHT22;14032;52.510;7.342;2023-07-16T09:08:54;21.10;99.90
26326;DHT22;14032;52.510;7.342;2023-07-16T09:11:22;21.00;99.90
26326;DHT22;14032;52.510;7.342;2023-07-16T09:13:50;20.90;99.90
26326;DHT22;14032;52.510;7.342;2023-07-16T09:16:19;20.80;99.90
26326;DHT22;14032;52.510;7.342;2023-07-16T09:18:46;20.70;99.90
26326;DHT22;14032;52.510;7.342;2023-07-16T09:21:12;20.60;99.90
26326;DHT22;14032;52.510;7.342;2023-07-16T09:23:38;20.50;99.90
26326;DHT22;14032;52.510;7.342;2023-07-16T09:26:04;20.60;99.90
26326;DHT22;14032;52.510;7.342;2023-07-16T09:28:33;20.70;99.90
26326;DHT22;14032;52.510;7.342;2023-07-16T09:31:06;20.70;99.90
26326;DHT22;14032;52.510;7.342;2023-07-16T09:33:32;20.60;99.90
26326;DHT22;14032;52.510;7.342;2023-07-16T09:35:57;20.50;99.90
26326;DHT22;14032;52.510;7.342;2023-07-16T09:38:23;20.50;99.90
26326;DHT22;14032;52.510;7.342;2023-07-16T09:40:51;20.30;99.90
26326;DHT22;14032;52.510;7.342;2023-07-16T09:43:17;20.20;99.90
26326;DHT22;14032;52.510;7.342;2023-07-16T09:45:43;20.20;99.90
26326;DHT22;14032;52.510;7.342;2023-07-16T09:48:09;20.30;99.90
26326;DHT22;14032;52.510;7.342;2023-07-16T09:50:35;20.40;99.90
26326;DHT22;14032;52.510;7.342;2023-07-16T09:53:03;20.40;99.90
26326;DHT22;14032;52.510;7.342;2023-07-16T09:55:31;20.50;99.90
26326;DHT22;14032;52.510;7.342;2023-07-16T09:58:00;20.50;99.90
26326;DHT22;14032;52.510;7.342;2023-07-16T10:00:27;20.40;99.90
26326;DHT22;14032;52.510;7.342;2023-07-16T10:02:54;20.30;99.90
26326;DHT22;14032;52.510;7.342;2023-07-16T10:05:25;20.30;99.90
26326;DHT22;14032;52.510;7.342;2023-07-16T10:07:53;20.30;99.90
26326;DHT22;14032;52.510;7.342;2023-07-16T10:10:19;20.30;99.90
26326;DHT22;14032;52.510;7.342;2023-07-16T10:12:56;20.30;99.90
26326;DHT22;14032;52.510;7.342;2023-07-16T10:15:29;20.40;99.90
26326;DHT22;14032;52.510;7.342;2023-07-16T10:17:55;20.50;99.90
26326;DHT22;14032;52.510;7.342;2023-07-16T10:20:33;20.50;99.90
26326;DHT22;14032;52.510;7.342;2023-07-16T10:22:59;20.50;99.90
26326;DHT22;14032;52.510;7.342;2023-07-16T10:25:35;20.50;99.90
26326;DHT22;14032;52.510;7.342;2023-07-16T10:28:00;20.50;99.90
26326;DHT22;14032;52.510;7.342;2023-07-16T10:30:26;20.50;99.90
26326;DHT22;14032;52.510;7.342;2023-07-16T10:32:52;20.40;99.90
26326;DHT22;14032;52.510;7.342;2023-07-16T10:35:18;20.40;99.90
26326;DHT22;14032;52.510;7.342;2023-07-16T10:37:44;20.50;99.90
26326;DHT22;14032;52.510;7.342;2023-07-16T10:40:13;20.60;99.90
26326;DHT22;14032;52.510;7.342;2023-07-16T10:42:41;20.70;99.90
26326;DHT22;14032;52.510;7.342;2023-07-16T10:45:08;20.70;99.90
26326;DHT22;14032;52.510;7.342;2023-07-16T10:47:36;20.80;99.90
26326;DHT22;14032;52.510;7.342;2023-07-16T10:50:09;20.90;99.90
26326;DHT22;14032;52.510;7.342;2023-07-16T10:52:36;20.80;99.90
26326;DHT22;14032;52.510;7.342;2023-07-16T10:55:03;20.80;99.90
26326;DHT22;14032;52.510;7.342;2023-07-16T10:57:30;20.80;99.90
26326;DHT22;14032;52.510;7.342;2023-07-16T10:59:58;20.80;99.90
26326;DHT22;14032;52.510;7.342;2023-07-16T11:02:24;20.80;99.90
26326;DHT22;14032;52.510;7.342;2023-07-16T11:04:51;20.80;99.90
26326;DHT22;14032;52.510;7.342;2023-07-16T11:07:21;20.80;99.90
26326;DHT22;14032;52.510;7.342;2023-07-16T11:09:52;20.80;99.90
26326;DHT22;14032;52.510;7.342;2023-07-16T11:12:21;20.80;99.90
26326;DHT22;14032;52.510;7.342;2023-07-16T11:14:49;20.90;99.90
26326;DHT22;14032;52.510;7.342;2023-07-16T11:17:16;20.90;99.90
26326;DHT22;14032;52.510;7.342;2023-07-16T11:19:45;21.00;99.90
26326;DHT22;14032;52.510;7.342;2023-07-16T11:22:11;21.00;99.90
26326;DHT22;14032;52.510;7.342;2023-07-16T11:24:41;21.00;99.90
26326;DHT22;14032;52.510;7.342;2023-07-16T11:27:18;21.00;99.90
26326;DHT22;14032;52.510;7.342;2023-07-16T11:29:51;21.00;99.90
26326;DHT22;14032;52.510;7.342;2023-07-16T11:32:46;21.00;99.90
26326;DHT22;14032;52.510;7.342;2023-07-16T11:35:18;21.00;99.90
26326;DHT22;14032;52.510;7.342;2023-07-16T11:37:44;21.00;99.90
26326;DHT22;14032;52.510;7.342;2023-07-16T11:40:15;21.00;99.90
26326;DHT22;14032;52.510;7.342;2023-07-16T11:42:41;21.00;99.90
26326;DHT22;14032;52.510;7.342;2023-07-16T11:45:21;21.00;99.90
26326;DHT22;14032;52.510;7.342;2023-07-16T11:47:48;20.90;99.90
26326;DHT22;14032;52.510;7.342;2023-07-16T11:50:14;20.90;99.90
26326;DHT22;14032;52.510;7.342;2023-07-16T11:52:40;20.80;99.90
26326;DHT22;14032;52.510;7.342;2023-07-16T11:55:06;20.90;99.90
26326;DHT22;14032;52.510;7.342;2023-07-16T11:57:34;21.00;99.90
26326;DHT22;14032;52.510;7.342;2023-07-16T11:59:59;21.10;99.90
26326;DHT22;14032;52.510;7.342;2023-07-16T12:02:26;21.10;99.90
26326;DHT22;14032;52.510;7.342;2023-07-16T12:04:52;21.00;99.90
26326;DHT22;14032;52.510;7.342;2023-07-16T12:07:37;21.10;99.90
26326;DHT22;14032;52.510;7.342;2023-07-16T12:10:07;21.10;99.90
26326;DHT22;14032;52.510;7.342;2023-07-16T12:12:33;21.00;99.90
26326;DHT22;14032;52.510;7.342;2023-07-16T12:15:00;21.00;99.90
26326;DHT22;14032;52.510;7.342;2023-07-16T12:17:25;21.00;99.90
26326;DHT22;14032;52.510;7.342;2023-07-16T12:19:51;20.90;99.90
26326;DHT22;14032;52.510;7.342;2023-07-16T12:22:18;20.90;99.90
26326;DHT22;14032;52.510;7.342;2023-07-16T12:24:44;20.90;99.90
26326;DHT22;14032;52.510;7.342;2023-07-16T12:27:09;21.00;99.90
26326;DHT22;14032;52.510;7.342;2023-07-16T12:29:35;21.00;99.90
26326;DHT22;14032;52.510;7.342;2023-07-16T12:32:00;20.90;99.90
26326;DHT22;14032;52.510;7.342;2023-07-16T12:34:26;20.90;99.90
26326;DHT22;14032;52.510;7.342;2023-07-16T12:36:52;20.80;99.90
26326;DHT22;14032;52.510;7.342;2023-07-16T12:39:19;20.90;99.90
26326;DHT22;14032;52.510;7.342;2023-07-16T12:41:45;20.90;99.90
26326;DHT22;14032;52.510;7.342;2023-07-16T12:44:11;21.00;99.90
26326;DHT22;14032;52.510;7.342;2023-07-16T12:46:37;21.00;99.90
26326;DHT22;14032;52.510;7.342;2023-07-16T12:49:02;21.10;99.90
26326;DHT22;14032;52.510;7.342;2023-07-16T12:51:28;21.10;99.90
26326;DHT22;14032;52.510;7.342;2023-07-16T12:53:54;21.00;99.90
26326;DHT22;14032;52.510;7.342;2023-07-16T12:56:19;21.00;99.90
26326;DHT22;14032;52.510;7.342;2023-07-16T12:58:45;21.00;99.90
26326;DHT22;14032;52.510;7.342;2023-07-16T13:01:10;21.00;99.90
26326;DHT22;14032;52.510;7.342;2023-07-16T13:03:37;21.00;99.90
26326;DHT22;14032;52.510;7.342;2023-07-16T13:06:03;21.00;99.90
26326;DHT22;14032;52.510;7.342;2023-07-16T13:08:29;21.00;99.90
26326;DHT22;14032;52.510;7.342;2023-07-16T13:10:55;21.00;99.90
26326;DHT22;14032;52.510;7.342;2023-07-16T13:13:20;20.90;99.90
26326;DHT22;14032;52.510;7.342;2023-07-16T13:15:46;20.90;99.90
26326;DHT22;14032;52.510;7.342;2023-07-16T13:18:12;20.90;99.90
26326;DHT22;14032;52.510;7.342;2023-07-16T13:20:38;20.90;99.90
26326;DHT22;14032;52.510;7.342;2023-07-16T13:23:03;21.00;99.90
26326;DHT22;14032;52.510;7.342;2023-07-16T13:25:29;21.00;99.90
26326;DHT22;14032;52.510;7.342;2023-07-16T13:27:56;21.00;99.90
26326;DHT22;14032;52.510;7.342;2023-07-16T13:30:21;20.90;99.90
26326;DHT22;14032;52.510;7.342;2023-07-16T13:32:47;20.90;99.90
26326;DHT22;14032;52.510;7.342;2023-07-16T13:35:15;20.90;99.90
26326;DHT22;14032;52.510;7.342;2023-07-16T13:37:41;20.80;99.90
26326;DHT22;14032;52.510;7.342;2023-07-16T13:40:07;20.80;99.90
26326;DHT22;14032;52.510;7.342;2023-07-16T13:42:33;20.90;99.90
26326;DHT22;14032;52.510;7.342;2023-07-16T13:44:59;20.90;99.90
26326;DHT22;14032;52.510;7.342;2023-07-16T13:47:24;20.90;99.90
26326;DHT22;14032;52.510;7.342;2023-07-16T13:49:50;20.90;99.90
26326;DHT22;14032;52.510;7.342;2023-07-16T13:52:16;20.90;99.90
26326;DHT22;14032;52.510;7.342;2023-07-16T13:54:42;21.00;99.90
26326;DHT22;14032;52.510;7.342;2023-07-16T13:57:08;21.00;99.90
26326;DHT22;14032;52.510;7.342;2023-07-16T13:59:34;21.10;99.90
26326;DHT22;14032;52.510;7.342;2023-07-16T14:02:01;21.20;99.90
26326;DHT22;14032;52.510;7.342;2023-07-16T14:04:27;21.20;99.90
26326;DHT22;14032;52.510;7.342;2023-07-16T14:06:53;21.20;99.90
26326;DHT22;14032;52.510;7.342;2023-07-16T14:09:19;21.10;99.90
26326;DHT22;14032;52.510;7.342;2023-07-16T14:11:45;21.10;99.90
26326;DHT22;14032;52.510;7.342;2023-07-16T14:14:14;21.10;99.90
26326;DHT22;14032;52.510;7.342;2023-07-16T14:16:39;21.10;99.90
26326;DHT22;14032;52.510;7.342;2023-07-16T14:19:05;21.10;99.90
26326;DHT22;14032;52.510;7.342;2023-07-16T14:21:30;21.20;99.90
26326;DHT22;14032;52.510;7.342;2023-07-16T14:23:56;21.30;99.90
26326;DHT22;14032;52.510;7.342;2023-07-16T14:26:21;21.30;99.90
26326;DHT22;14032;52.510;7.342;2023-07-16T14:28:47;21.40;99.90
26326;DHT22;14032;52.510;7.342;2023-07-16T14:31:13;21.50;99.90
26326;DHT22;14032;52.510;7.342;2023-07-16T14:33:39;21.50;99.90
26326;DHT22;14032;52.510;7.342;2023-07-16T14:36:05;21.50;99.90
26326;DHT22;14032;52.510;7.342;2023-07-16T14:38:30;21.50;99.90
26326;DHT22;14032;52.510;7.342;2023-07-16T14:40:56;21.40;99.90
26326;DHT22;14032;52.510;7.342;2023-07-16T14:43:21;21.40;99.90
26326;DHT22;14032;52.510;7.342;2023-07-16T14:45:47;21.40;99.90
26326;DHT22;14032;52.510;7.342;2023-07-16T14:48:13;21.40;99.90
26326;DHT22;14032;52.510;7.342;2023-07-16T14:50:39;21.30;99.90
26326;DHT22;14032;52.510;7.342;2023-07-16T14:53:05;21.30;99.90
26326;DHT22;14032;52.510;7.342;2023-07-16T14:55:30;21.30;99.90
26326;DHT22;14032;52.510;7.342;2023-07-16T14:57:56;21.30;99.90
26326;DHT22;14032;52.510;7.342;2023-07-16T15:00:22;21.30;99.90
26326;DHT22;14032;52.510;7.342;2023-07-16T15:02:48;21.30;99.90
26326;DHT22;14032;52.510;7.342;2023-07-16T15:05:14;21.30;99.90
26326;DHT22;14032;52.510;7.342;2023-07-16T15:07:39;21.30;99.90
26326;DHT22;14032;52.510;7.342;2023-07-16T15:10:05;21.30;99.90
26326;DHT22;14032;52.510;7.342;2023-07-16T15:12:32;21.30;99.90
26326;DHT22;14032;52.510;7.342;2023-07-16T15:14:58;21.30;99.90
26326;DHT22;14032;52.510;7.342;2023-07-16T15:17:24;21.30;99.90
26326;DHT22;14032;52.510;7.342;2023-07-16T15:19:51;21.40;99.90
26326;DHT22;14032;52.510;7.342;2023-07-16T15:22:16;21.50;99.90
26326;DHT22;14032;52.510;7.342;2023-07-16T15:24:44;21.60;99.90
26326;DHT22;14032;52.510;7.342;2023-07-16T15:27:09;21.60;99.90
26326;DHT22;14032;52.510;7.342;2023-07-16T15:29:35;21.50;99.90
26326;DHT22;14032;52.510;7.342;2023-07-16T15:32:01;21.50;99.90
26326;DHT22;14032;52.510;7.342;2023-07-16T15:34:26;21.50;99.90
26326;DHT22;14032;52.510;7.342;2023-07-16T15:36:52;21.40;99.90